createdAt,value
2022-12-06T00:01:29.060Z,10.38
2022-12-06T00:03:58.685Z,10.27
2022-12-06T00:06:28.009Z,10.29
2022-12-06T00:08:56.609Z,10.31
2022-12-06T00:11:29.483Z,10.43
2022-12-06T00:13:59.695Z,10.47
2022-12-06T00:16:27.516Z,10.53
2022-12-06T00:18:55.200Z,10.58
2022-12-06T00:21:24.988Z,10.55
2022-12-06T00:23:57.799Z,10.49
2022-12-06T00:26:25.674Z,10.44
2022-12-06T00:28:55.732Z,10.36
2022-12-06T00:31:24.665Z,10.33
2022-12-06T00:33:52.042Z,10.36
2022-12-06T00:36:27.374Z,10.34
2022-12-06T00:38:54.901Z,10.33
2022-12-06T00:41:25.472Z,10.37
2022-12-06T00:43:53.224Z,10.60
2022-12-06T00:46:23.442Z,10.65
2022-12-06T00:48:51.143Z,10.40
2022-12-06T00:51:19.837Z,10.39
2022-12-06T00:53:47.133Z,10.44
2022-12-06T00:56:14.606Z,10.35
2022-12-06T00:58:42.120Z,10.36
2022-12-06T01:01:16.442Z,10.36
2022-12-06T01:03:44.977Z,10.44
2022-12-06T01:06:15.627Z,10.49
2022-12-06T01:08:42.832Z,10.41
2022-12-06T01:11:10.952Z,10.35
2022-12-06T01:13:37.740Z,10.20
2022-12-06T01:16:14.671Z,10.07
2022-12-06T01:18:43.242Z,10.13
2022-12-06T01:21:12.794Z,10.16
2022-12-06T01:23:39.676Z,10.13
2022-12-06T01:26:08.058Z,10.15
2022-12-06T01:28:35.302Z,10.12
2022-12-06T01:31:07.937Z,10.12
2022-12-06T01:33:35.344Z,10.16
2022-12-06T01:36:03.385Z,10.20
2022-12-06T01:38:30.303Z,10.18
2022-12-06T01:40:57.252Z,10.21
2022-12-06T01:43:36.100Z,10.30
2022-12-06T01:46:07.028Z,10.35
2022-12-06T01:48:34.989Z,10.36
2022-12-06T01:51:03.367Z,10.39
2022-12-06T01:53:31.753Z,10.43
2022-12-06T01:55:58.986Z,10.41
2022-12-06T01:58:31.978Z,10.39
2022-12-06T02:00:59.005Z,10.37
2022-12-06T02:03:29.412Z,10.28
2022-12-06T02:05:57.552Z,10.34
2022-12-06T02:08:24.993Z,10.35
2022-12-06T02:10:52.085Z,10.41
2022-12-06T02:13:19.094Z,10.44
2022-12-06T02:15:58.587Z,10.39
2022-12-06T02:18:47.240Z,10.15
2022-12-06T02:21:41.785Z,10.07
2022-12-06T02:24:14.579Z,10.04
2022-12-06T02:26:48.390Z,9.87
2022-12-06T02:29:33.427Z,9.71
2022-12-06T02:32:22.737Z,9.59
2022-12-06T02:35:08.263Z,9.69
2022-12-06T02:37:52.492Z,9.85
2022-12-06T02:40:29.011Z,9.77
2022-12-06T02:43:01.642Z,9.72
2022-12-06T02:45:34.115Z,9.67
2022-12-06T02:48:03.719Z,9.56
2022-12-06T02:50:39.247Z,9.45
2022-12-06T02:53:09.041Z,9.58
2022-12-06T02:55:36.217Z,9.70
2022-12-06T02:58:04.302Z,9.80
2022-12-06T03:00:40.718Z,9.73
2022-12-06T03:03:44.649Z,9.76
2022-12-06T03:06:57.658Z,9.58
2022-12-06T03:09:29.502Z,9.43
2022-12-06T03:12:11.537Z,9.40
2022-12-06T03:14:48.299Z,9.41
2022-12-06T03:17:41.772Z,9.28
2022-12-06T03:20:15.860Z,9.18
2022-12-06T03:22:49.138Z,9.13
2022-12-06T03:25:17.158Z,9.22
2022-12-06T03:27:46.798Z,9.36
2022-12-06T03:30:15.344Z,9.29
2022-12-06T03:32:46.215Z,9.30
2022-12-06T03:35:17.682Z,9.36
2022-12-06T03:37:50.377Z,9.46
2022-12-06T03:40:26.699Z,9.41
2022-12-06T03:42:54.045Z,9.45
2022-12-06T03:45:26.891Z,9.37
2022-12-06T03:47:57.881Z,9.27
2022-12-06T03:50:37.819Z,9.29
2022-12-06T03:53:04.720Z,9.28
2022-12-06T03:55:31.620Z,9.33
2022-12-06T03:57:58.428Z,9.31
2022-12-06T04:00:25.095Z,9.27
2022-12-06T04:02:51.996Z,9.21
2022-12-06T04:05:18.978Z,9.27
2022-12-06T04:07:45.821Z,9.38
2022-12-06T04:10:12.607Z,9.36
2022-12-06T04:12:57.903Z,9.00
2022-12-06T04:15:24.800Z,8.97
2022-12-06T04:18:09.948Z,9.09
2022-12-06T04:21:01.315Z,8.93
2022-12-06T04:23:28.823Z,8.94
2022-12-06T04:25:56.091Z,9.00
2022-12-06T04:28:41.702Z,8.66
2022-12-06T04:31:27.272Z,8.62
2022-12-06T04:34:12.933Z,8.38
2022-12-06T04:36:59.204Z,8.46
2022-12-06T04:39:26.324Z,8.58
2022-12-06T04:42:11.460Z,8.47
2022-12-06T04:44:38.690Z,8.41
2022-12-06T04:47:06.225Z,8.22
2022-12-06T04:49:34.290Z,8.25
2022-12-06T04:52:05.150Z,8.30
2022-12-06T04:54:32.231Z,8.22
2022-12-06T04:56:59.605Z,8.11
2022-12-06T04:59:27.243Z,8.15
2022-12-06T05:01:54.802Z,8.15
2022-12-06T05:04:22.494Z,8.07
2022-12-06T05:06:49.712Z,8.16
2022-12-06T05:09:16.504Z,8.28
2022-12-06T05:11:46.274Z,8.36
2022-12-06T05:14:13.104Z,8.35
2022-12-06T05:16:39.925Z,8.23
2022-12-06T05:19:06.893Z,8.17
2022-12-06T05:21:33.798Z,8.15
2022-12-06T05:24:00.589Z,8.22
2022-12-06T05:26:29.004Z,8.36
2022-12-06T05:28:56.982Z,8.43
2022-12-06T05:31:24.882Z,8.56
2022-12-06T05:33:52.550Z,8.62
2022-12-06T05:36:23.200Z,8.60
2022-12-06T05:38:51.788Z,8.51
2022-12-06T05:41:24.639Z,8.49
2022-12-06T05:43:51.751Z,8.55
2022-12-06T05:46:18.601Z,8.62
2022-12-06T05:48:45.454Z,8.66
2022-12-06T05:51:12.326Z,8.60
2022-12-06T05:53:39.597Z,8.57
2022-12-06T05:56:09.227Z,8.55
2022-12-06T05:58:36.593Z,8.60
2022-12-06T06:01:04.588Z,8.75
2022-12-06T06:03:31.548Z,8.81
2022-12-06T06:06:00.532Z,8.78
2022-12-06T06:08:28.172Z,8.74
2022-12-06T06:10:54.965Z,8.78
2022-12-06T06:13:22.077Z,8.81
2022-12-06T06:15:50.109Z,8.67
2022-12-06T06:18:17.927Z,8.64
2022-12-06T06:20:49.808Z,8.47
2022-12-06T06:23:17.075Z,8.46
2022-12-06T06:25:44.093Z,8.43
2022-12-06T06:28:10.979Z,8.43
2022-12-06T06:30:37.779Z,8.34
2022-12-06T06:33:04.645Z,8.39
2022-12-06T06:35:31.506Z,8.34
2022-12-06T06:37:58.307Z,8.39
2022-12-06T06:40:25.045Z,8.44
2022-12-06T06:42:52.043Z,8.46
2022-12-06T06:45:21.553Z,8.48
2022-12-06T06:47:52.030Z,8.50
2022-12-06T06:50:18.815Z,8.58
2022-12-06T06:52:47.503Z,8.64
2022-12-06T06:55:14.262Z,8.64
2022-12-06T06:57:41.457Z,8.67
2022-12-06T07:00:09.507Z,8.60
2022-12-06T07:02:37.402Z,8.46
2022-12-06T07:05:04.357Z,8.21
2022-12-06T07:07:31.634Z,8.14
2022-12-06T07:09:58.918Z,8.20
2022-12-06T07:12:25.890Z,8.34
2022-12-06T07:14:52.617Z,8.39
2022-12-06T07:17:19.327Z,8.41
2022-12-06T07:19:46.138Z,8.45
2022-12-06T07:22:12.875Z,8.31
2022-12-06T07:24:42.909Z,8.14
2022-12-06T07:27:12.148Z,8.02
2022-12-06T07:29:39.038Z,7.96
2022-12-06T07:32:06.098Z,8.09
2022-12-06T07:34:33.450Z,8.18
2022-12-06T07:37:00.150Z,8.28
2022-12-06T07:39:26.856Z,8.54
2022-12-06T07:42:12.333Z,8.57
2022-12-06T07:45:03.117Z,8.56
2022-12-06T07:47:38.500Z,8.47
2022-12-06T07:50:10.569Z,8.56
2022-12-06T07:52:44.806Z,8.61
2022-12-06T07:55:12.548Z,8.79
2022-12-06T07:57:43.344Z,8.84
2022-12-06T08:00:14.494Z,8.91
2022-12-06T08:02:42.254Z,8.93
2022-12-06T08:05:09.386Z,8.97
2022-12-06T08:07:36.360Z,8.99
2022-12-06T08:10:03.973Z,8.89
2022-12-06T08:12:32.251Z,8.77
2022-12-06T08:15:00.009Z,8.86
2022-12-06T08:17:27.990Z,8.99
2022-12-06T08:19:54.834Z,9.16
2022-12-06T08:22:21.665Z,9.26
2022-12-06T08:24:48.590Z,9.27
2022-12-06T08:27:15.565Z,9.26
2022-12-06T08:29:45.282Z,9.26
2022-12-06T08:32:12.275Z,9.34
2022-12-06T08:34:39.055Z,9.43
2022-12-06T08:37:05.921Z,9.55
2022-12-06T08:39:32.658Z,9.66
2022-12-06T08:41:59.573Z,9.81
2022-12-06T08:44:28.284Z,9.87
2022-12-06T08:46:56.455Z,9.93
2022-12-06T08:49:24.520Z,9.98
2022-12-06T08:51:52.990Z,10.03
2022-12-06T08:54:23.006Z,10.16
2022-12-06T08:56:50.690Z,10.38
2022-12-06T08:59:18.505Z,10.51
2022-12-06T09:01:46.439Z,10.60
2022-12-06T09:04:13.594Z,10.66
2022-12-06T09:06:45.432Z,10.77
2022-12-06T09:09:14.152Z,10.84
2022-12-06T09:11:41.728Z,10.81
2022-12-06T09:14:10.484Z,10.80
2022-12-06T09:16:37.855Z,10.77
2022-12-06T09:19:05.816Z,10.76
2022-12-06T09:21:34.302Z,10.79
2022-12-06T09:24:01.537Z,10.83
2022-12-06T09:26:28.506Z,10.95
2022-12-06T09:28:56.908Z,11.08
2022-12-06T09:31:24.970Z,11.19
2022-12-06T09:33:52.628Z,11.21
2022-12-06T09:36:23.443Z,11.25
2022-12-06T09:38:53.194Z,11.24
2022-12-06T09:41:35.002Z,11.30
2022-12-06T09:44:16.903Z,11.23
2022-12-06T09:47:02.202Z,11.15
2022-12-06T09:49:50.455Z,11.15
2022-12-06T09:52:25.845Z,11.16
2022-12-06T09:55:08.296Z,11.19
2022-12-06T09:57:42.497Z,11.22
2022-12-06T10:00:18.967Z,11.18
2022-12-06T10:03:00.630Z,11.20
2022-12-06T10:06:01.610Z,11.24
2022-12-06T10:08:34.426Z,11.36
2022-12-06T10:11:30.920Z,11.51
2022-12-06T10:14:15.410Z,11.60
2022-12-06T10:17:04.620Z,11.53
2022-12-06T10:19:40.395Z,11.51
2022-12-06T10:22:22.014Z,11.58
2022-12-06T10:25:03.103Z,11.59
2022-12-06T10:27:40.298Z,11.52
2022-12-06T10:30:10.940Z,11.47
2022-12-06T10:32:54.632Z,11.63
2022-12-06T10:35:31.515Z,11.64
2022-12-06T10:38:20.298Z,11.59
2022-12-06T10:41:17.576Z,11.60
2022-12-06T10:43:58.295Z,11.67
2022-12-06T10:47:04.632Z,11.55
2022-12-06T10:50:05.875Z,11.50
2022-12-06T10:52:41.811Z,11.44
2022-12-06T10:55:11.994Z,11.49
2022-12-06T10:57:56.880Z,11.46
2022-12-06T11:00:26.556Z,11.40
2022-12-06T11:03:15.696Z,11.39
2022-12-06T11:05:49.152Z,11.38
2022-12-06T11:08:32.556Z,11.41
2022-12-06T11:11:00.199Z,11.42
2022-12-06T11:13:59.255Z,11.44
2022-12-06T11:16:43.630Z,11.50
2022-12-06T11:19:34.129Z,11.48
2022-12-06T11:22:22.080Z,11.49
2022-12-06T11:25:02.787Z,11.50
2022-12-06T11:27:55.460Z,11.59
2022-12-06T11:30:22.424Z,11.59
2022-12-06T11:32:51.737Z,11.61
2022-12-06T11:35:25.239Z,11.63
2022-12-06T11:37:56.512Z,11.71
2022-12-06T11:40:30.783Z,11.80
2022-12-06T11:43:02.692Z,11.82
2022-12-06T11:45:33.637Z,11.89
2022-12-06T11:48:02.511Z,11.99
2022-12-06T11:50:32.417Z,12.05
2022-12-06T11:53:10.776Z,12.13
2022-12-06T11:55:43.633Z,12.17
2022-12-06T11:58:44.199Z,12.28
2022-12-06T12:01:14.391Z,12.32
2022-12-06T12:03:44.149Z,12.28
2022-12-06T12:06:27.773Z,12.21
2022-12-06T12:09:05.125Z,12.21
2022-12-06T12:11:35.077Z,12.22
2022-12-06T12:14:05.172Z,12.20
2022-12-06T12:16:32.117Z,12.22
2022-12-06T12:19:19.559Z,12.21
2022-12-06T12:21:50.921Z,12.18
2022-12-06T12:25:11.164Z,12.17
2022-12-06T12:27:38.835Z,12.23
2022-12-06T12:30:24.706Z,12.25
2022-12-06T12:33:08.116Z,12.22
2022-12-06T12:35:45.590Z,12.20
2022-12-06T12:38:22.527Z,12.24
2022-12-06T12:41:30.865Z,12.26
2022-12-06T12:44:28.859Z,12.24
2022-12-06T12:47:02.817Z,12.33
2022-12-06T12:49:39.133Z,12.40
2022-12-06T12:52:29.621Z,12.40
2022-12-06T12:55:12.944Z,12.39
2022-12-06T12:57:41.179Z,12.38
2022-12-06T13:00:16.405Z,12.44
2022-12-06T13:02:46.350Z,12.47
2022-12-06T13:05:35.605Z,12.43
2022-12-06T13:08:15.643Z,12.40
2022-12-06T13:10:47.557Z,12.39
2022-12-06T13:13:19.647Z,12.35
2022-12-06T13:15:53.392Z,12.38
2022-12-06T13:18:25.125Z,12.44
2022-12-06T13:20:54.104Z,12.43
2022-12-06T13:23:25.355Z,12.40
2022-12-06T13:26:16.572Z,12.44
2022-12-06T13:28:51.830Z,12.57
2022-12-06T13:31:23.610Z,12.70
2022-12-06T13:33:59.133Z,12.73
2022-12-06T13:36:31.121Z,12.69
2022-12-06T13:38:58.489Z,12.64
2022-12-06T13:42:10.226Z,12.58
2022-12-06T13:44:40.804Z,12.50
2022-12-06T13:47:30.755Z,12.44
2022-12-06T13:50:03.342Z,12.40
2022-12-06T13:52:42.589Z,12.39
2022-12-06T13:55:24.911Z,12.40
2022-12-06T13:58:00.797Z,12.37
2022-12-06T14:00:30.791Z,12.33
2022-12-06T14:03:03.159Z,12.31
2022-12-06T14:06:13.973Z,12.32
2022-12-06T14:08:54.136Z,12.30
2022-12-06T14:11:28.318Z,12.30
2022-12-06T14:14:01.068Z,12.33
2022-12-06T14:16:42.135Z,12.37
2022-12-06T14:19:29.185Z,12.36
2022-12-06T14:21:55.969Z,12.34
2022-12-06T14:24:28.944Z,12.30
2022-12-06T14:27:15.785Z,12.28
2022-12-06T14:30:02.483Z,12.24
2022-12-06T14:32:38.034Z,12.25
2022-12-06T14:35:11.729Z,12.23
2022-12-06T14:37:39.074Z,12.25
2022-12-06T14:40:45.453Z,12.27
2022-12-06T14:43:17.528Z,12.24
2022-12-06T14:45:45.611Z,12.21
2022-12-06T14:48:13.761Z,12.21
2022-12-06T14:50:59.873Z,12.21
2022-12-06T14:53:34.313Z,12.21
2022-12-06T14:56:07.660Z,12.23
2022-12-06T14:58:37.163Z,12.25
2022-12-06T15:01:16.351Z,12.29
2022-12-06T15:03:43.772Z,12.30
2022-12-06T15:06:15.749Z,12.29
2022-12-06T15:08:55.307Z,12.26
2022-12-06T15:11:44.024Z,12.23
2022-12-06T15:14:40.081Z,12.21
2022-12-06T15:17:09.608Z,12.20
2022-12-06T15:19:40.104Z,12.20
2022-12-06T15:22:25.605Z,12.20
2022-12-06T15:24:55.477Z,12.18
2022-12-06T15:27:24.065Z,12.15
2022-12-06T15:29:50.927Z,12.16
2022-12-06T15:32:19.912Z,12.15
2022-12-06T15:34:47.117Z,12.14
2022-12-06T15:37:38.243Z,12.13
2022-12-06T15:40:04.386Z,12.14
2022-12-06T15:42:31.423Z,12.12
2022-12-06T15:44:58.262Z,12.14
2022-12-06T15:47:25.164Z,12.13
2022-12-06T15:49:53.442Z,12.12
2022-12-06T15:52:24.938Z,12.11
2022-12-06T15:54:52.234Z,12.11
2022-12-06T15:57:19.068Z,12.09
2022-12-06T15:59:45.968Z,12.09
2022-12-06T16:02:17.854Z,12.10
2022-12-06T16:04:45.790Z,12.08
2022-12-06T16:07:18.527Z,12.05
2022-12-06T16:09:45.895Z,12.04
2022-12-06T16:12:12.671Z,12.05
2022-12-06T16:14:39.564Z,12.00
2022-12-06T16:17:06.362Z,11.93
2022-12-06T16:19:51.695Z,11.88
2022-12-06T16:22:18.812Z,11.92
2022-12-06T16:24:50.840Z,11.87
2022-12-06T16:27:20.667Z,11.83
2022-12-06T16:29:47.517Z,11.79
2022-12-06T16:32:14.376Z,11.80
2022-12-06T16:34:41.139Z,11.81
2022-12-06T16:37:10.805Z,11.81
2022-12-06T16:39:37.708Z,11.75
2022-12-06T16:42:05.210Z,11.73
2022-12-06T16:44:32.505Z,11.71
2022-12-06T16:46:59.609Z,11.71
2022-12-06T16:49:46.166Z,11.68
2022-12-06T16:52:14.246Z,11.68
2022-12-06T16:54:41.855Z,11.67
2022-12-06T16:57:11.253Z,11.67
2022-12-06T16:59:37.979Z,11.70
2022-12-06T17:02:16.238Z,11.71
2022-12-06T17:04:43.090Z,11.72
2022-12-06T17:07:09.828Z,11.83
2022-12-06T17:09:36.599Z,11.85
2022-12-06T17:12:03.452Z,11.86
2022-12-06T17:14:30.496Z,11.83
2022-12-06T17:17:03.629Z,11.82
2022-12-06T17:19:31.658Z,11.78
2022-12-06T17:22:02.174Z,11.71
2022-12-06T17:24:29.228Z,11.65
2022-12-06T17:26:56.151Z,11.63
2022-12-06T17:29:23.937Z,11.64
2022-12-06T17:31:51.860Z,11.58
2022-12-06T17:34:20.087Z,11.56
2022-12-06T17:36:48.894Z,11.54
2022-12-06T17:39:19.054Z,11.60
2022-12-06T17:42:04.728Z,11.63
2022-12-06T17:44:31.709Z,11.63
2022-12-06T17:46:58.446Z,11.64
2022-12-06T17:49:26.502Z,11.68
2022-12-06T17:51:53.890Z,11.68
2022-12-06T17:54:21.177Z,11.71
2022-12-06T17:56:50.143Z,11.75
2022-12-06T17:59:20.672Z,11.73
2022-12-06T18:04:35.930Z,11.77
2022-12-06T18:07:02.781Z,11.78
2022-12-06T18:09:29.595Z,11.79
2022-12-06T18:11:57.085Z,11.77
2022-12-06T18:14:23.964Z,11.78
2022-12-06T18:16:50.883Z,11.75
2022-12-06T18:19:20.219Z,11.66
2022-12-06T18:21:47.542Z,11.61
2022-12-06T18:24:27.850Z,11.61
2022-12-06T18:26:57.821Z,11.57
2022-12-06T18:29:24.676Z,11.58
2022-12-06T18:31:52.419Z,11.61
2022-12-06T18:34:20.036Z,11.63
2022-12-06T18:36:47.532Z,11.64
2022-12-06T18:39:17.488Z,11.59
2022-12-06T18:41:44.928Z,11.55
2022-12-06T18:44:13.057Z,11.49
2022-12-06T18:46:42.588Z,11.48
2022-12-06T18:49:11.730Z,11.48
2022-12-06T18:51:39.644Z,11.48
2022-12-06T18:54:06.747Z,11.53
2022-12-06T18:56:35.120Z,11.62
2022-12-06T18:59:04.704Z,11.65
2022-12-06T19:01:34.624Z,11.63
2022-12-06T19:04:03.565Z,11.64
2022-12-06T19:06:33.548Z,11.67
2022-12-06T19:09:05.946Z,11.67
2022-12-06T19:11:37.410Z,11.61
2022-12-06T19:14:05.927Z,11.56
2022-12-06T19:16:38.622Z,11.57
2022-12-06T19:19:11.458Z,11.60
2022-12-06T19:21:43.766Z,11.57
2022-12-06T19:24:12.774Z,11.53
2022-12-06T19:26:40.133Z,11.60
2022-12-06T19:29:07.158Z,11.55
2022-12-06T19:31:34.168Z,11.50
2022-12-06T19:34:01.222Z,11.47
2022-12-06T19:36:30.426Z,11.45
2022-12-06T19:39:08.926Z,11.43
2022-12-06T19:41:58.806Z,11.43
2022-12-06T19:44:27.025Z,11.43
2022-12-06T19:46:54.039Z,11.47
2022-12-06T19:49:23.517Z,11.47
2022-12-06T19:51:51.416Z,11.49
2022-12-06T19:54:30.065Z,11.53
2022-12-06T19:56:58.721Z,11.52
2022-12-06T19:59:31.208Z,11.46
2022-12-06T20:01:58.690Z,11.39
2022-12-06T20:04:31.321Z,11.40
2022-12-06T20:06:58.629Z,11.41
2022-12-06T20:09:28.041Z,11.47
2022-12-06T20:12:05.712Z,11.50
2022-12-06T20:14:33.188Z,11.48
2022-12-06T20:17:01.275Z,11.49
2022-12-06T20:19:29.339Z,11.52
2022-12-06T20:21:56.270Z,11.56
2022-12-06T20:24:23.963Z,11.59
2022-12-06T20:26:53.435Z,11.63
2022-12-06T20:29:21.412Z,11.61
2022-12-06T20:31:51.225Z,11.59
2022-12-06T20:34:20.089Z,11.58
2022-12-06T20:36:47.570Z,11.60
2022-12-06T20:39:23.169Z,11.61
2022-12-06T20:41:51.194Z,11.64
2022-12-06T20:44:18.933Z,11.65
2022-12-06T20:46:48.190Z,11.68
2022-12-06T20:49:16.551Z,11.61
2022-12-06T20:51:49.548Z,11.52
2022-12-06T20:54:19.760Z,11.55
2022-12-06T20:56:47.300Z,11.50
2022-12-06T20:59:14.880Z,11.45
2022-12-06T21:01:42.338Z,11.34
2022-12-06T21:04:12.932Z,11.23
2022-12-06T21:06:40.198Z,11.20
2022-12-06T21:09:07.193Z,11.21
2022-12-06T21:11:34.351Z,11.26
2022-12-06T21:14:01.410Z,11.32
2022-12-06T21:16:30.946Z,11.35
2022-12-06T21:19:09.588Z,11.42
2022-12-06T21:21:39.231Z,11.41
2022-12-06T21:24:12.115Z,11.42
2022-12-06T21:26:39.516Z,11.49
2022-12-06T21:29:06.424Z,11.49
2022-12-06T21:31:36.235Z,11.44
2022-12-06T21:34:05.731Z,11.43
2022-12-06T21:36:33.455Z,11.46
2022-12-06T21:39:00.736Z,11.49
2022-12-06T21:41:28.174Z,11.43
2022-12-06T21:43:55.947Z,11.28
2022-12-06T21:46:26.128Z,11.29
2022-12-06T21:48:59.396Z,11.26
2022-12-06T21:51:29.602Z,11.26
2022-12-06T21:53:57.469Z,11.28
2022-12-06T21:56:26.405Z,11.35
2022-12-06T21:58:54.538Z,11.37
2022-12-06T22:01:28.135Z,11.37
2022-12-06T22:03:58.276Z,11.42
2022-12-06T22:06:25.931Z,11.42
2022-12-06T22:09:02.082Z,11.43
2022-12-06T22:11:30.407Z,11.33
2022-12-06T22:14:00.181Z,11.32
2022-12-06T22:16:28.799Z,11.33
2022-12-06T22:18:55.738Z,11.30
2022-12-06T22:21:28.755Z,11.32
2022-12-06T22:23:59.724Z,11.33
2022-12-06T22:26:28.442Z,11.38
2022-12-06T22:28:56.091Z,11.43
2022-12-06T22:31:29.447Z,11.38
2022-12-06T22:33:58.079Z,11.25
2022-12-06T22:36:25.825Z,11.17
2022-12-06T22:38:55.562Z,11.16
2022-12-06T22:41:23.782Z,11.13
2022-12-06T22:43:52.484Z,11.04
2022-12-06T22:46:20.417Z,11.01
2022-12-06T22:48:47.297Z,11.07
2022-12-06T22:51:17.029Z,11.12
2022-12-06T22:53:51.886Z,11.16
2022-12-06T22:56:18.902Z,11.15
2022-12-06T22:58:46.134Z,11.14
2022-12-06T23:01:17.441Z,11.13
2022-12-06T23:03:49.376Z,11.13
2022-12-06T23:06:19.671Z,11.17
2022-12-06T23:12:53.396Z,11.24
2022-12-06T23:15:20.335Z,11.28
2022-12-06T23:17:47.132Z,11.28
2022-12-06T23:20:13.901Z,11.29
2022-12-06T23:22:40.572Z,11.34
2022-12-06T23:25:08.027Z,11.35
2022-12-06T23:27:35.699Z,11.38
2022-12-06T23:30:02.804Z,11.38
2022-12-06T23:32:30.141Z,11.30
2022-12-06T23:34:57.034Z,11.26
2022-12-06T23:37:23.752Z,11.30
2022-12-06T23:39:50.528Z,11.33
2022-12-06T23:42:17.252Z,11.33
2022-12-06T23:44:44.082Z,11.32
2022-12-06T23:47:10.825Z,11.21
2022-12-06T23:49:37.601Z,11.20
2022-12-06T23:56:15.762Z,11.13
2022-12-06T23:58:44.171Z,11.09
